createdAt,value
2019-01-03T00:00:11.942Z,69.7
2019-01-03T00:01:22.068Z,69.7
2019-01-03T00:02:32.176Z,69.79
2019-01-03T00:03:42.305Z,69.79
2019-01-03T00:04:52.408Z,68.94
2019-01-03T00:06:02.528Z,69.13
2019-01-03T00:07:12.670Z,69.98
2019-01-03T00:08:22.896Z,69.79
2019-01-03T00:09:34.357Z,69.7
2019-01-03T00:10:44.499Z,69.79
2019-01-03T00:11:54.628Z,69.7
2019-01-03T00:13:04.755Z,69.6
2019-01-03T00:14:14.892Z,69.6
2019-01-03T00:15:25.017Z,69.79
2019-01-03T00:16:35.150Z,69.79
2019-01-03T00:17:45.274Z,69.7
2019-01-03T00:18:55.151Z,69.13
2019-01-03T00:20:05.026Z,69.6
2019-01-03T00:21:15.173Z,69.41
2019-01-03T00:22:25.324Z,69.6
2019-01-03T00:23:35.466Z,69.6
2019-01-03T00:24:45.581Z,69.79
2019-01-03T00:25:55.720Z,69.7
2019-01-03T00:27:05.825Z,69.98
2019-01-03T00:28:16.045Z,69.89
2019-01-03T00:29:26.046Z,69.79
2019-01-03T00:30:35.897Z,69.6
2019-01-03T00:31:45.752Z,69.79
2019-01-03T00:32:55.885Z,70.07
2019-01-03T00:34:06.004Z,70.26
2019-01-03T00:35:16.131Z,70.17
2019-01-03T00:36:26.233Z,70.17
2019-01-03T00:37:36.346Z,69.89
2019-01-03T00:38:46.460Z,69.98
2019-01-03T00:39:56.592Z,69.89
2019-01-03T00:41:06.692Z,70.36
2019-01-03T00:42:16.847Z,70.36
2019-01-03T00:43:26.988Z,70.26
2019-01-03T00:44:37.113Z,70.36
2019-01-03T00:45:47.210Z,70.45
2019-01-03T00:46:57.321Z,70.36
2019-01-03T00:48:07.438Z,70.26
2019-01-03T00:49:17.308Z,70.45
2019-01-03T00:50:27.426Z,70.36
2019-01-03T00:51:37.549Z,70.26
2019-01-03T00:52:47.650Z,70.26
2019-01-03T00:53:57.772Z,70.36
2019-01-03T00:55:07.901Z,70.26
2019-01-03T00:56:18.010Z,70.17
2019-01-03T00:57:27.872Z,70.45
2019-01-03T00:58:38.017Z,70.36
2019-01-03T00:59:48.115Z,70.45
2019-01-03T01:00:58.217Z,71.02
2019-01-03T01:02:08.329Z,70.83
2019-01-03T01:03:18.423Z,70.45
2019-01-03T01:04:28.537Z,69.98
2019-01-03T01:05:38.657Z,70.36
2019-01-03T01:06:48.788Z,69.98
2019-01-03T01:07:58.907Z,70.07
2019-01-03T01:09:09.021Z,70.26
2019-01-03T01:10:19.162Z,69.98
2019-01-03T01:11:29.272Z,70.36
2019-01-03T01:12:39.371Z,70.17
2019-01-03T01:13:49.466Z,70.36
2019-01-03T01:14:59.609Z,70.55
2019-01-03T01:16:09.727Z,70.61
2019-01-03T01:17:19.864Z,70.79
2019-01-03T01:18:29.961Z,70.61
2019-01-03T01:19:40.074Z,70.64
2019-01-03T01:20:50.169Z,70.89
2019-01-03T01:22:00.304Z,70.61
2019-01-03T01:23:10.420Z,70.7
2019-01-03T01:24:20.511Z,70.7
2019-01-03T01:25:30.668Z,70.7
2019-01-03T01:26:40.778Z,70.89
2019-01-03T01:27:50.895Z,70.89
2019-01-03T01:29:00.985Z,71.08
2019-01-03T01:30:11.086Z,70.61
2019-01-03T01:31:21.194Z,71.08
2019-01-03T01:32:31.302Z,71.08
2019-01-03T01:33:41.402Z,71.27
2019-01-03T01:34:51.499Z,71.08
2019-01-03T01:36:01.607Z,71.46
2019-01-03T01:37:11.704Z,71.74
2019-01-03T01:38:21.555Z,71.27
2019-01-03T01:39:31.663Z,71.65
2019-01-03T01:40:41.753Z,71.55
2019-01-03T01:41:51.857Z,71.65
2019-01-03T01:43:01.963Z,71.55
2019-01-03T01:44:12.069Z,71.84
2019-01-03T01:45:22.201Z,71.36
2019-01-03T01:46:32.302Z,71.74
2019-01-03T01:47:42.421Z,71.74
2019-01-03T01:48:52.729Z,71.93
2019-01-03T01:50:02.991Z,71.36
2019-01-03T01:51:13.148Z,72.22
2019-01-03T01:52:23.268Z,72.22
2019-01-03T01:53:33.369Z,72.03
2019-01-03T01:54:43.261Z,72.03
2019-01-03T01:55:53.374Z,72.31
2019-01-03T01:57:03.475Z,72.41
2019-01-03T01:58:13.578Z,72.22
2019-01-03T01:59:23.688Z,72.22
2019-01-03T02:00:33.794Z,72.03
2019-01-03T02:01:43.905Z,72.41
2019-01-03T02:02:54.023Z,72.22
2019-01-03T02:04:04.135Z,72.31
2019-01-03T02:05:13.999Z,72.12
2019-01-03T02:06:24.109Z,72.03
2019-01-03T02:07:34.213Z,72.22
2019-01-03T02:08:44.317Z,72.31
2019-01-03T02:09:54.433Z,72.31
2019-01-03T02:11:04.540Z,72.22
2019-01-03T02:12:14.633Z,71.55
2019-01-03T02:13:24.765Z,71.46
2019-01-03T02:14:34.901Z,71.36
2019-01-03T02:15:45.013Z,71.46
2019-01-03T02:16:55.216Z,72.12
2019-01-03T02:18:05.329Z,71.93
2019-01-03T02:19:15.420Z,71.93
2019-01-03T02:20:25.526Z,72.03
2019-01-03T02:21:35.632Z,72.22
2019-01-03T02:22:45.744Z,72.12
2019-01-03T02:23:55.851Z,72.22
2019-01-03T02:25:05.944Z,72.12
2019-01-03T02:26:16.057Z,72.12
2019-01-03T02:27:26.162Z,72.31
2019-01-03T02:28:36.251Z,72.22
2019-01-03T02:29:46.381Z,72.31
2019-01-03T02:30:56.513Z,72.31
2019-01-03T02:32:06.623Z,72.5
2019-01-03T02:33:16.731Z,72.22
2019-01-03T02:34:26.843Z,72.03
2019-01-03T02:35:36.936Z,72.22
2019-01-03T02:36:47.064Z,72.03
2019-01-03T02:37:57.181Z,72.12
2019-01-03T02:39:06.932Z,72.03
2019-01-03T02:40:16.798Z,72.31
2019-01-03T02:41:26.912Z,72.22
2019-01-03T02:42:37.173Z,72.31
2019-01-03T02:43:47.337Z,72.12
2019-01-03T02:44:57.459Z,72.5
2019-01-03T02:46:07.568Z,72.41
2019-01-03T02:47:17.692Z,72.31
2019-01-03T02:48:27.787Z,72.31
2019-01-03T02:49:37.924Z,72.31
2019-01-03T02:50:48.014Z,72.41
2019-01-03T02:51:58.111Z,72.22
2019-01-03T02:53:07.950Z,72.03
2019-01-03T02:54:18.079Z,72.31
2019-01-03T02:55:27.934Z,72.31
2019-01-03T02:56:38.025Z,72.22
2019-01-03T02:57:48.122Z,72.31
2019-01-03T02:58:58.359Z,72.03
2019-01-03T03:00:07.864Z,72.22
2019-01-03T03:01:17.976Z,72.22
2019-01-03T03:02:28.074Z,72.31
2019-01-03T03:03:38.184Z,72.03
2019-01-03T03:04:48.289Z,72.03
2019-01-03T03:05:58.415Z,72.22
2019-01-03T03:07:08.018Z,72.31
2019-01-03T03:08:17.865Z,71.93
2019-01-03T03:09:27.981Z,72.22
2019-01-03T03:10:38.112Z,72.03
2019-01-03T03:11:48.219Z,72.22
2019-01-03T03:12:57.967Z,72.31
2019-01-03T03:14:08.070Z,72.41
2019-01-03T03:15:18.199Z,72.22
2019-01-03T03:16:28.288Z,72.03
2019-01-03T03:17:38.395Z,71.93
2019-01-03T03:18:48.532Z,72.03
2019-01-03T03:19:58.628Z,71.93
2019-01-03T03:21:08.735Z,71.74
2019-01-03T03:22:18.838Z,71.55
2019-01-03T03:23:28.937Z,71.74
2019-01-03T03:24:39.068Z,71.93
2019-01-03T03:25:48.924Z,71.93
2019-01-03T03:26:59.035Z,72.03
2019-01-03T03:28:09.146Z,71.93
2019-01-03T03:29:19.260Z,71.93
2019-01-03T03:30:29.378Z,71.55
2019-01-03T03:31:39.495Z,71.46
2019-01-03T03:32:49.676Z,71.65
2019-01-03T03:33:59.801Z,71.65
2019-01-03T03:35:09.920Z,72.03
2019-01-03T03:36:21.505Z,71.74
2019-01-03T03:37:31.620Z,71.36
2019-01-03T03:38:41.757Z,71.84
2019-01-03T03:39:51.853Z,71.74
2019-01-03T03:41:01.955Z,72.12
2019-01-03T03:42:12.053Z,72.22
2019-01-03T03:43:22.166Z,72.03
2019-01-03T03:44:32.282Z,72.12
2019-01-03T03:45:42.387Z,72.31
2019-01-03T03:46:52.483Z,72.22
2019-01-03T03:48:02.579Z,72.5
2019-01-03T03:49:12.688Z,72.22
2019-01-03T03:50:22.813Z,72.03
2019-01-03T03:51:32.943Z,72.31
2019-01-03T03:52:43.037Z,72.22
2019-01-03T03:53:53.144Z,72.31
2019-01-03T03:55:02.991Z,72.5
2019-01-03T03:56:13.102Z,72.41
2019-01-03T03:57:23.202Z,72.31
2019-01-03T03:58:33.324Z,72.31
2019-01-03T03:59:43.441Z,72.31
2019-01-03T04:00:53.551Z,72.22
2019-01-03T04:02:03.708Z,72.41
2019-01-03T04:03:13.556Z,72.69
2019-01-03T04:04:23.652Z,72.6
2019-01-03T04:05:33.783Z,72.69
2019-01-03T04:06:43.640Z,72.41
2019-01-03T04:07:53.744Z,72.6
2019-01-03T04:09:03.847Z,72.5
2019-01-03T04:10:14.001Z,72.5
2019-01-03T04:11:24.262Z,72.41
2019-01-03T04:12:34.419Z,72.69
2019-01-03T04:13:44.538Z,72.5
2019-01-03T04:14:54.652Z,72.41
2019-01-03T04:16:04.761Z,72.6
2019-01-03T04:17:14.521Z,72.78
2019-01-03T04:18:24.625Z,72.31
2019-01-03T04:19:34.725Z,72.22
2019-01-03T04:20:44.845Z,72.22
2019-01-03T04:21:54.942Z,72.69
2019-01-03T04:23:04.822Z,72.5
2019-01-03T04:24:14.918Z,72.41
2019-01-03T04:25:25.029Z,72.5
2019-01-03T04:26:35.138Z,72.41
2019-01-03T04:27:45.236Z,72.03
2019-01-03T04:28:55.389Z,72.22
2019-01-03T04:30:05.501Z,72.22
2019-01-03T04:31:15.607Z,72.41
2019-01-03T04:32:25.706Z,72.5
2019-01-03T04:33:35.811Z,72.41
2019-01-03T04:34:45.962Z,72.12
2019-01-03T04:35:56.066Z,72.31
2019-01-03T04:37:06.188Z,72.41
2019-01-03T04:38:16.290Z,72.69
2019-01-03T04:39:26.412Z,72.69
2019-01-03T04:40:36.522Z,72.6
2019-01-03T04:41:46.626Z,72.69
2019-01-03T04:42:56.745Z,72.6
2019-01-03T04:44:06.979Z,72.5
2019-01-03T04:45:17.111Z,72.6
2019-01-03T04:46:27.250Z,72.69
2019-01-03T04:47:37.376Z,72.69
2019-01-03T04:48:47.486Z,72.5
2019-01-03T04:49:57.642Z,72.69
2019-01-03T04:51:07.764Z,72.5
2019-01-03T04:52:17.885Z,72.6
2019-01-03T04:53:27.997Z,72.5
2019-01-03T04:54:38.104Z,72.69
2019-01-03T04:55:48.204Z,72.69
2019-01-03T04:56:58.314Z,72.69
2019-01-03T04:58:08.411Z,72.6
2019-01-03T04:59:18.537Z,72.6
2019-01-03T05:00:28.644Z,72.69
2019-01-03T05:01:38.756Z,72.69
2019-01-03T05:02:48.602Z,72.5
2019-01-03T05:03:58.717Z,72.5
2019-01-03T05:05:08.823Z,72.6
2019-01-03T05:06:18.919Z,72.5
2019-01-03T05:07:29.036Z,72.5
2019-01-03T05:08:38.909Z,72.5
2019-01-03T05:09:49.061Z,72.69
2019-01-03T05:10:58.913Z,72.5
2019-01-03T05:12:09.027Z,72.69
2019-01-03T05:13:19.136Z,72.5
2019-01-03T05:14:29.297Z,72.69
2019-01-03T05:15:39.393Z,72.69
2019-01-03T05:16:49.527Z,72.5
2019-01-03T05:17:59.625Z,72.41
2019-01-03T05:19:09.719Z,72.5
2019-01-03T05:20:19.829Z,72.5
2019-01-03T05:21:29.941Z,72.69
2019-01-03T05:22:40.035Z,72.69
2019-01-03T05:23:56.690Z,72.69
2019-01-03T05:25:06.837Z,72.69
2019-01-03T05:26:16.944Z,72.6
2019-01-03T05:27:27.054Z,72.78
2019-01-03T05:28:37.154Z,72.22
2019-01-03T05:29:47.264Z,72.12
2019-01-03T05:30:57.380Z,72.31
2019-01-03T05:32:07.471Z,72.5
2019-01-03T05:33:17.591Z,72.69
2019-01-03T05:34:27.718Z,72.6
2019-01-03T05:35:37.820Z,72.5
2019-01-03T05:36:47.924Z,72.6
2019-01-03T05:37:58.029Z,72.6
2019-01-03T05:39:08.144Z,72.5
2019-01-03T05:40:18.260Z,72.5
2019-01-03T05:41:28.441Z,72.5
2019-01-03T05:42:38.561Z,72.5
2019-01-03T05:43:48.655Z,72.6
2019-01-03T05:44:58.762Z,72.6
2019-01-03T05:46:08.896Z,72.69
2019-01-03T05:47:19.005Z,72.22
2019-01-03T05:48:29.112Z,72.5
2019-01-03T05:49:39.213Z,72.5
2019-01-03T05:50:49.346Z,72.6
2019-01-03T05:51:59.514Z,72.5
2019-01-03T05:53:09.611Z,72.6
2019-01-03T05:54:19.470Z,72.5
2019-01-03T05:55:29.566Z,72.6
2019-01-03T05:56:39.677Z,72.6
2019-01-03T05:57:49.780Z,72.31
2019-01-03T05:58:59.899Z,72.69
2019-01-03T06:00:10.027Z,72.5
2019-01-03T06:01:21.203Z,72.5
2019-01-03T06:02:31.062Z,72.6
2019-01-03T06:03:41.170Z,72.5
2019-01-03T06:04:51.277Z,73.07
2019-01-03T06:06:01.409Z,72.88
2019-01-03T06:07:11.517Z,73.07
2019-01-03T06:08:21.615Z,72.97
2019-01-03T06:09:31.725Z,72.97
2019-01-03T06:10:41.563Z,72.88
2019-01-03T06:11:51.416Z,73.16
2019-01-03T06:13:01.539Z,73.26
2019-01-03T06:14:11.648Z,73.16
2019-01-03T06:15:21.777Z,73.16
2019-01-03T06:16:31.898Z,73.07
2019-01-03T06:17:42.016Z,73.16
2019-01-03T06:18:52.111Z,72.97
2019-01-03T06:20:02.213Z,73.07
2019-01-03T06:21:12.317Z,72.97
2019-01-03T06:22:22.436Z,73.54
2019-01-03T06:23:32.532Z,73.54
2019-01-03T06:24:42.284Z,73.45
2019-01-03T06:25:52.381Z,73.35
2019-01-03T06:27:02.489Z,73.5
2019-01-03T06:28:12.594Z,72.97
2019-01-03T06:29:22.695Z,73.16
2019-01-03T06:30:32.851Z,73.16
2019-01-03T06:31:42.971Z,73.54
2019-01-03T06:32:53.063Z,73.6
2019-01-03T06:34:03.166Z,73.07
2019-01-03T06:35:13.023Z,72.78
2019-01-03T06:36:23.140Z,72.88
2019-01-03T06:37:39.202Z,73.07
2019-01-03T06:38:49.301Z,73.13
2019-01-03T06:39:59.396Z,73.45
2019-01-03T06:41:09.490Z,72.97
2019-01-03T06:42:19.587Z,73.64
2019-01-03T06:43:29.701Z,73.41
2019-01-03T06:44:39.816Z,73.45
2019-01-03T06:45:49.915Z,73.35
2019-01-03T06:47:00.008Z,73.03
2019-01-03T06:48:10.137Z,73.32
2019-01-03T06:49:23.238Z,73.45
2019-01-03T06:50:33.338Z,73.83
2019-01-03T06:51:43.450Z,73.64
2019-01-03T06:52:53.593Z,73.64
2019-01-03T06:54:03.760Z,73.64
2019-01-03T06:55:13.866Z,73.26
2019-01-03T06:56:23.982Z,73.26
2019-01-03T06:57:34.105Z,73.45
2019-01-03T06:58:44.229Z,73.45
2019-01-03T06:59:54.079Z,72.97
2019-01-03T07:01:04.206Z,73.26
2019-01-03T07:02:14.327Z,73.41
2019-01-03T07:03:24.438Z,73.16
2019-01-03T07:04:34.548Z,72.97
2019-01-03T07:05:44.655Z,73.07
2019-01-03T07:06:54.762Z,73.07
2019-01-03T07:08:04.912Z,72.88
2019-01-03T07:09:15.022Z,72.97
2019-01-03T07:10:25.124Z,72.41
2019-01-03T07:11:35.223Z,72.5
2019-01-03T07:12:45.315Z,72.5
2019-01-03T07:13:55.412Z,72.12
2019-01-03T07:15:05.523Z,72.03
2019-01-03T07:16:15.638Z,72.31
2019-01-03T07:17:25.735Z,72.12
2019-01-03T07:18:35.844Z,71.55
2019-01-03T07:19:45.976Z,71.65
2019-01-03T07:20:56.071Z,71.65
2019-01-03T07:22:06.185Z,71.93
2019-01-03T07:23:16.048Z,71.17
2019-01-03T07:24:26.164Z,70.98
2019-01-03T07:25:36.289Z,70.61
2019-01-03T07:26:46.404Z,70.89
2019-01-03T07:27:56.516Z,70.7
2019-01-03T07:29:06.632Z,70.14
2019-01-03T07:30:16.736Z,69.85
2019-01-03T07:31:26.843Z,70.04
2019-01-03T07:32:36.946Z,70.23
2019-01-03T07:33:47.072Z,69.57
2019-01-03T07:34:57.177Z,69.66
2019-01-03T07:36:07.274Z,69.76
2019-01-03T07:37:17.165Z,69.76
2019-01-03T07:38:27.284Z,69.28
2019-01-03T07:39:37.394Z,68.71
2019-01-03T07:40:47.503Z,68.81
2019-01-03T07:41:57.594Z,68.62
2019-01-03T07:43:07.702Z,68.81
2019-01-03T07:44:17.814Z,68.71
2019-01-03T07:45:27.906Z,69
2019-01-03T07:46:38.019Z,68.52
2019-01-03T07:47:48.127Z,69.09
2019-01-03T07:48:59.198Z,68.71
2019-01-03T07:50:09.310Z,68.52
2019-01-03T07:51:19.425Z,68.33
2019-01-03T07:52:29.524Z,68.81
2019-01-03T07:53:40.390Z,68.52
2019-01-03T07:54:50.603Z,68.62
2019-01-03T07:56:00.760Z,68.62
2019-01-03T07:57:10.869Z,68.81
2019-01-03T07:58:20.966Z,68.43
2019-01-03T07:59:31.071Z,68.15
2019-01-03T08:00:41.169Z,67.86
2019-01-03T08:01:51.297Z,67.96
2019-01-03T08:03:01.408Z,67.96
2019-01-03T08:04:11.525Z,67.68
2019-01-03T08:05:21.630Z,67.86
2019-01-03T08:06:31.733Z,67.68
2019-01-03T08:07:41.842Z,67.96
2019-01-03T08:08:51.943Z,67.86
2019-01-03T08:10:02.041Z,67.96
2019-01-03T08:11:12.143Z,67.68
2019-01-03T08:12:22.273Z,67.58
2019-01-03T08:13:32.423Z,67.68
2019-01-03T08:14:42.588Z,67.86
2019-01-03T08:15:52.698Z,67.86
2019-01-03T08:17:02.803Z,68.05
2019-01-03T08:18:12.908Z,68.24
2019-01-03T08:19:23.053Z,68.43
2019-01-03T08:20:33.162Z,67.68
2019-01-03T08:21:43.263Z,67.58
2019-01-03T08:22:53.369Z,67.77
2019-01-03T08:24:03.485Z,67.2
2019-01-03T08:25:13.604Z,67.68
2019-01-03T08:26:23.704Z,68.15
2019-01-03T08:27:33.807Z,67.96
2019-01-03T08:28:43.908Z,67.68
2019-01-03T08:29:53.771Z,67.77
2019-01-03T08:31:03.434Z,67.77
2019-01-03T08:32:13.539Z,67.8
2019-01-03T08:33:23.655Z,67.86
2019-01-03T08:34:33.758Z,67.99
2019-01-03T08:35:43.879Z,67.8
2019-01-03T08:36:53.993Z,67.8
2019-01-03T08:38:04.105Z,67.8
2019-01-03T08:39:14.218Z,67.9
2019-01-03T08:40:24.344Z,67.99
2019-01-03T08:41:34.453Z,68.08
2019-01-03T08:42:44.558Z,67.61
2019-01-03T08:43:54.758Z,67.8
2019-01-03T08:45:04.885Z,67.43
2019-01-03T08:46:14.995Z,67.24
2019-01-03T08:47:25.108Z,67.14
2019-01-03T08:48:35.205Z,66.95
2019-01-03T08:49:45.506Z,66.86
2019-01-03T08:50:55.602Z,67.05
2019-01-03T08:52:05.766Z,67.43
2019-01-03T08:53:15.619Z,67.14
2019-01-03T08:54:25.783Z,66.95
2019-01-03T08:55:35.886Z,66.57
2019-01-03T08:56:46.011Z,67.05
2019-01-03T08:57:56.116Z,66.76
2019-01-03T08:59:06.224Z,66.95
2019-01-03T09:00:16.318Z,67.33
2019-01-03T09:01:26.428Z,66.86
2019-01-03T09:02:36.536Z,66.57
2019-01-03T09:03:46.654Z,66.57
2019-01-03T09:04:56.771Z,66.57
2019-01-03T09:06:06.900Z,66.76
2019-01-03T09:07:17.051Z,66.67
2019-01-03T09:08:27.158Z,66.38
2019-01-03T09:09:37.293Z,66.57
2019-01-03T09:10:47.395Z,66.57
2019-01-03T09:11:57.494Z,66.47
2019-01-03T09:13:07.612Z,66.38
2019-01-03T09:14:17.706Z,66.57
2019-01-03T09:15:27.814Z,66.47
2019-01-03T09:16:37.934Z,66.47
2019-01-03T09:17:48.045Z,66.8
2019-01-03T09:18:58.167Z,66.6
2019-01-03T09:20:08.265Z,66.57
2019-01-03T09:21:18.388Z,66.57
2019-01-03T09:22:28.502Z,66.47
2019-01-03T09:23:38.632Z,66.6
2019-01-03T09:24:48.743Z,66.51
2019-01-03T09:25:58.871Z,66.47
2019-01-03T09:27:14.845Z,66.41
2019-01-03T09:28:24.953Z,66.57
2019-01-03T09:29:35.064Z,66.41
2019-01-03T09:30:45.208Z,66.51
2019-01-03T09:31:55.385Z,66.41
2019-01-03T09:33:05.573Z,66.32
2019-01-03T09:34:15.789Z,66.41
2019-01-03T09:35:25.897Z,66.7
2019-01-03T09:36:36.007Z,66.7
2019-01-03T09:37:46.111Z,66.13
2019-01-03T09:38:56.328Z,65.84
2019-01-03T09:40:06.437Z,66.03
2019-01-03T09:41:16.573Z,66.13
2019-01-03T09:42:26.685Z,66.13
2019-01-03T09:43:36.795Z,65.94
2019-01-03T09:44:46.916Z,66.22
2019-01-03T09:45:57.534Z,65.28
2019-01-03T09:47:07.656Z,65.37
2019-01-03T09:48:17.776Z,65.37
2019-01-03T09:49:27.915Z,65.28
2019-01-03T09:50:38.050Z,65.41
2019-01-03T09:51:48.167Z,64.93
2019-01-03T09:52:58.273Z,64.55
2019-01-03T09:54:08.620Z,63.6
2019-01-03T09:55:18.844Z,64.27
2019-01-03T09:56:29.083Z,64.36
2019-01-03T09:57:39.281Z,64.65
2019-01-03T09:58:49.385Z,63.89
2019-01-03T09:59:59.498Z,64.08
2019-01-03T10:01:09.620Z,63.13
2019-01-03T10:02:19.740Z,63.32
2019-01-03T10:03:29.905Z,63.17
2019-01-03T10:04:40.055Z,63.17
2019-01-03T10:05:50.196Z,63.07
2019-01-03T10:07:00.368Z,62.59
2019-01-03T10:08:10.241Z,62.69
2019-01-03T10:09:27.279Z,62.78
2019-01-03T10:10:37.405Z,62.59
2019-01-03T10:11:47.160Z,62.59
2019-01-03T10:12:57.299Z,62.31
2019-01-03T10:14:07.419Z,61.68
2019-01-03T10:15:17.882Z,61.77
2019-01-03T10:16:28.017Z,61.87
2019-01-03T10:17:38.244Z,61.77
2019-01-03T10:18:48.412Z,61.58
2019-01-03T10:19:58.526Z,61.01
2019-01-03T10:21:08.682Z,61.11
2019-01-03T10:22:18.824Z,61.11
2019-01-03T10:23:28.942Z,61.01
2019-01-03T10:24:39.072Z,60.82
2019-01-03T10:25:49.210Z,60.82
2019-01-03T10:26:59.330Z,60.19
2019-01-03T10:28:09.519Z,60.82
2019-01-03T10:29:19.665Z,61.04
2019-01-03T10:30:29.780Z,60.85
2019-01-03T10:31:39.928Z,60.38
2019-01-03T10:32:50.052Z,60.28
2019-01-03T10:34:00.195Z,60.57
2019-01-03T10:35:10.304Z,60
2019-01-03T10:36:27.457Z,59.52
2019-01-03T10:37:37.742Z,59.71
2019-01-03T10:38:47.893Z,59.62
2019-01-03T10:39:58.029Z,60.19
2019-01-03T10:41:08.163Z,59.62
2019-01-03T10:42:18.290Z,58.76
2019-01-03T10:43:28.421Z,58.76
2019-01-03T10:44:38.542Z,59.62
2019-01-03T10:45:48.657Z,59.3
2019-01-03T10:46:58.797Z,59.49
2019-01-03T10:48:08.953Z,59.68
2019-01-03T10:49:19.098Z,59.3
2019-01-03T10:50:29.220Z,59.4
2019-01-03T10:51:39.360Z,58.92
2019-01-03T10:52:49.476Z,58.83
2019-01-03T10:53:59.606Z,59.21
2019-01-03T10:55:09.734Z,59.78
2019-01-03T10:56:19.638Z,59.59
2019-01-03T10:57:29.757Z,59.21
2019-01-03T10:58:39.869Z,59.78
2019-01-03T10:59:50.931Z,59.59
2019-01-03T11:01:01.152Z,59.78
2019-01-03T11:02:11.269Z,59.68
2019-01-03T11:03:21.450Z,59.49
2019-01-03T11:04:31.579Z,59.97
2019-01-03T11:05:41.684Z,60.16
2019-01-03T11:06:52.889Z,59.59
2019-01-03T11:08:03.025Z,59.78
2019-01-03T11:09:13.162Z,59.59
2019-01-03T11:10:23.020Z,59.02
2019-01-03T11:11:33.150Z,59.4
2019-01-03T11:12:43.261Z,59.88
2019-01-03T11:13:53.397Z,59.88
2019-01-03T11:15:03.538Z,59.59
2019-01-03T11:16:13.676Z,59.3
2019-01-03T11:17:24.018Z,59.21
2019-01-03T11:18:34.178Z,58.83
2019-01-03T11:19:44.288Z,58.86
2019-01-03T11:20:54.438Z,58.86
2019-01-03T11:22:04.574Z,58.39
2019-01-03T11:23:14.451Z,58.48
2019-01-03T11:24:24.595Z,58.58
2019-01-03T11:25:34.740Z,58.67
2019-01-03T11:26:44.858Z,58.29
2019-01-03T11:27:54.637Z,57.53
2019-01-03T11:29:04.796Z,58.2
2019-01-03T11:30:14.964Z,58.2
2019-01-03T11:31:25.103Z,57.81
2019-01-03T11:32:35.236Z,58
2019-01-03T11:33:45.364Z,57.72
2019-01-03T11:34:55.527Z,57.94
2019-01-03T11:36:05.683Z,57.84
2019-01-03T11:37:15.806Z,57.56
2019-01-03T11:38:25.931Z,57.09
2019-01-03T11:39:36.047Z,57.09
2019-01-03T11:40:46.188Z,56.89
2019-01-03T11:41:56.374Z,56.32
2019-01-03T11:43:06.491Z,56.13
2019-01-03T11:44:16.660Z,56.23
2019-01-03T11:45:26.805Z,56.61
2019-01-03T11:46:36.925Z,56.51
2019-01-03T11:47:47.068Z,56.8
2019-01-03T11:48:57.225Z,56.61
2019-01-03T11:50:07.351Z,56.23
2019-01-03T11:51:17.490Z,55.57
2019-01-03T11:52:27.620Z,55.94
2019-01-03T11:53:37.738Z,56.51
2019-01-03T11:54:47.868Z,56.13
2019-01-03T11:55:57.793Z,56.32
2019-01-03T11:57:07.899Z,56.13
2019-01-03T11:58:18.033Z,55.47
2019-01-03T11:59:28.172Z,55.57
2019-01-03T12:00:38.281Z,54.99
2019-01-03T12:01:48.045Z,54.8
2019-01-03T12:02:58.198Z,54.71
2019-01-03T12:04:08.308Z,54.97
2019-01-03T12:05:18.437Z,55.06
2019-01-03T12:06:28.565Z,55.63
2019-01-03T12:07:38.728Z,56.01
2019-01-03T12:08:48.849Z,56.1
2019-01-03T12:09:58.980Z,55.91
2019-01-03T12:11:09.148Z,56.1
2019-01-03T12:12:19.245Z,55.82
2019-01-03T12:13:29.374Z,55.63
2019-01-03T12:14:39.501Z,55.91
2019-01-03T12:15:49.666Z,56.01
2019-01-03T12:16:59.809Z,55.82
2019-01-03T12:18:09.940Z,55.82
2019-01-03T12:19:20.057Z,55.73
2019-01-03T12:20:30.216Z,56.2
2019-01-03T12:21:40.371Z,56.2
2019-01-03T12:22:50.613Z,55.63
2019-01-03T12:24:00.757Z,55.35
2019-01-03T12:25:10.896Z,55.73
2019-01-03T12:26:21.026Z,56.01
2019-01-03T12:27:31.164Z,56.01
2019-01-03T12:28:41.315Z,55.76
2019-01-03T12:29:51.680Z,55.25
2019-01-03T12:31:01.858Z,55.28
2019-01-03T12:32:11.986Z,55.44
2019-01-03T12:33:22.140Z,55.37
2019-01-03T12:34:32.271Z,55.54
2019-01-03T12:35:42.394Z,55.37
2019-01-03T12:36:52.534Z,55.66
2019-01-03T12:38:02.650Z,54.61
2019-01-03T12:39:12.781Z,54.52
2019-01-03T12:40:22.923Z,54.97
2019-01-03T12:41:33.066Z,54.97
2019-01-03T12:42:43.225Z,54.87
2019-01-03T12:43:53.374Z,54.87
2019-01-03T12:45:03.573Z,54.78
2019-01-03T12:46:13.717Z,55.06
2019-01-03T12:47:23.841Z,55.06
2019-01-03T12:48:33.989Z,54.68
2019-01-03T12:49:48.477Z,54.78
2019-01-03T12:50:58.336Z,54.78
2019-01-03T12:52:08.465Z,54.78
2019-01-03T12:53:18.617Z,55.06
2019-01-03T12:54:28.781Z,54.58
2019-01-03T12:55:38.939Z,54.68
2019-01-03T12:56:48.806Z,54.58
2019-01-03T12:57:58.936Z,55.06
2019-01-03T12:59:09.129Z,55.63
2019-01-03T13:00:20.247Z,55.44
2019-01-03T13:01:30.383Z,54.97
2019-01-03T13:02:40.529Z,54.97
2019-01-03T13:03:50.664Z,55.06
2019-01-03T13:05:00.812Z,54.78
2019-01-03T13:06:10.930Z,54.78
2019-01-03T13:07:26.461Z,54.78
2019-01-03T13:08:36.634Z,55.16
2019-01-03T13:09:46.812Z,55.54
2019-01-03T13:10:56.936Z,55.35
2019-01-03T13:12:07.108Z,55.35
2019-01-03T13:13:17.287Z,55.35
2019-01-03T13:14:27.443Z,55.54
2019-01-03T13:15:37.603Z,55.54
2019-01-03T13:16:47.821Z,55.73
2019-01-03T13:17:57.724Z,56.01
2019-01-03T13:19:07.868Z,56.01
2019-01-03T13:20:18.015Z,56.29
2019-01-03T13:21:28.143Z,56.2
2019-01-03T13:22:38.295Z,56.68
2019-01-03T13:23:48.435Z,56.39
2019-01-03T13:24:58.562Z,56.77
2019-01-03T13:26:08.713Z,56.49
2019-01-03T13:27:18.855Z,56.68
2019-01-03T13:28:28.995Z,57.06
2019-01-03T13:29:39.153Z,57.15
2019-01-03T13:30:49.523Z,57.24
2019-01-03T13:31:59.651Z,57.34
2019-01-03T13:33:09.850Z,57.06
2019-01-03T13:34:20.095Z,57.31
2019-01-03T13:35:30.462Z,57.43
2019-01-03T13:36:40.229Z,57.34
2019-01-03T13:37:50.120Z,57.43
2019-01-03T13:39:00.254Z,57.62
2019-01-03T13:40:10.387Z,57.79
2019-01-03T13:41:20.521Z,57.88
2019-01-03T13:42:30.658Z,57.79
2019-01-03T13:43:40.802Z,57.79
2019-01-03T13:44:51.169Z,57.91
2019-01-03T13:46:01.278Z,57.79
2019-01-03T13:47:11.394Z,57.88
2019-01-03T13:48:21.533Z,57.69
2019-01-03T13:49:31.659Z,57.79
2019-01-03T13:50:41.759Z,58.17
2019-01-03T13:51:51.875Z,57.79
2019-01-03T13:53:02.015Z,57.98
2019-01-03T13:54:12.155Z,57.98
2019-01-03T13:55:22.311Z,57.88
2019-01-03T13:56:32.438Z,57.69
2019-01-03T13:57:42.570Z,57.98
2019-01-03T13:58:52.709Z,58.17
2019-01-03T14:00:02.850Z,58.17
2019-01-03T14:01:13.041Z,58.26
2019-01-03T14:02:23.183Z,58.45
2019-01-03T14:03:33.356Z,58.45
2019-01-03T14:04:44.469Z,58.73
2019-01-03T14:05:54.638Z,58.83
2019-01-03T14:07:04.745Z,59.3
2019-01-03T14:08:14.887Z,59.49
2019-01-03T14:09:24.797Z,59.21
2019-01-03T14:10:35.195Z,59.59
2019-01-03T14:11:45.322Z,59.56
2019-01-03T14:12:55.466Z,59.68
2019-01-03T14:14:05.615Z,60.13
2019-01-03T14:15:15.750Z,60.03
2019-01-03T14:16:25.903Z,60.31
2019-01-03T14:17:36.040Z,60.22
2019-01-03T14:18:46.217Z,60.79
2019-01-03T14:19:56.369Z,60.5
2019-01-03T14:21:06.511Z,60.79
2019-01-03T14:22:16.754Z,60.89
2019-01-03T14:23:26.900Z,60.6
2019-01-03T14:24:37.025Z,60.79
2019-01-03T14:25:47.186Z,60.79
2019-01-03T14:26:57.303Z,60.5
2019-01-03T14:28:07.460Z,60.98
2019-01-03T14:29:17.596Z,60.7
2019-01-03T14:30:27.755Z,60.98
2019-01-03T14:31:37.899Z,60.98
2019-01-03T14:32:49.388Z,61.36
2019-01-03T14:33:59.499Z,61.36
2019-01-03T14:35:09.657Z,61.27
2019-01-03T14:36:19.804Z,61.36
2019-01-03T14:37:30.184Z,61.36
2019-01-03T14:38:40.553Z,61.36
2019-01-03T14:39:50.727Z,61.55
2019-01-03T14:41:00.901Z,61.65
2019-01-03T14:42:11.009Z,61.65
2019-01-03T14:43:21.137Z,61.55
2019-01-03T14:44:31.265Z,62.21
2019-01-03T14:45:41.180Z,62.59
2019-01-03T14:46:51.338Z,62.59
2019-01-03T14:48:01.472Z,62.4
2019-01-03T14:49:11.613Z,62.88
2019-01-03T14:50:21.759Z,63.26
2019-01-03T14:51:31.926Z,63.45
2019-01-03T14:52:42.059Z,63.45
2019-01-03T14:53:51.947Z,63.82
2019-01-03T14:55:02.088Z,64.3
2019-01-03T14:56:12.251Z,64.78
2019-01-03T14:57:22.390Z,64.78
2019-01-03T14:58:32.677Z,65.06
2019-01-03T14:59:42.867Z,65.16
2019-01-03T15:00:53.055Z,65.25
2019-01-03T15:02:03.275Z,65.82
2019-01-03T15:03:13.439Z,65.82
2019-01-03T15:04:23.589Z,66.1
2019-01-03T15:05:33.727Z,66.01
2019-01-03T15:06:43.893Z,66.48
2019-01-03T15:07:54.016Z,67.05